Time;durP1;ratioP1;P1;durP2;ratioP2;P2;SDS_P1;SDS_P2;PMS_P1;PMS_P2;Temp;Humidity;BMP_temperature;BMP_pressure;BME280_temperature;BME280_humidity;BME280_pressure;Samples;Min_cycle;Max_cycle;Signal;HPM_P1;HPM_P2
2023/12/09 00:01:51;;;;;;;9.63;8.93;;;;;;;1.81;100.00;112161.06;6185246;23;20225;-63
2023/12/09 00:04:18;;;;;;;9.87;8.97;;;;;;;1.82;100.00;114443.13;6185161;23;20593;-62
2023/12/09 00:06:48;;;;;;;10.90;9.97;;;;;;;1.88;100.00;115758.63;6185083;23;20162;-62
2023/12/09 00:09:18;;;;;;;11.17;10.13;;;;;;;1.71;100.00;119637.84;6185292;23;20475;-63
2023/12/09 00:11:45;;;;;;;11.20;10.20;;;;;;;1.88;100.00;121957.94;6184976;23;20594;-64
2023/12/09 00:14:13;;;;;;;10.90;10.10;;;;;;;1.59;100.00;120642.94;6185081;23;20162;-64
2023/12/09 00:16:41;;;;;;;12.20;10.30;;;;;;;1.75;100.00;116058.75;6184500;23;20182;-63
2023/12/09 00:19:09;;;;;;;10.47;9.57;;;;;;;1.62;100.00;114404.84;6184900;23;20166;-62
2023/12/09 00:21:36;;;;;;;10.27;9.47;;;;;;;1.60;100.00;114399.94;6184839;23;20186;-63
2023/12/09 00:24:03;;;;;;;9.90;9.23;;;;;;;1.63;100.00;114731.56;6184834;23;20181;-63
2023/12/09 00:26:31;;;;;;;8.87;8.17;;;;;;;1.61;100.00;113425.84;6184461;23;20171;-63
2023/12/09 00:28:58;;;;;;;9.97;9.17;;;;;;;1.62;100.00;109521.34;6184375;23;20158;-62
2023/12/09 00:31:26;;;;;;;9.63;8.67;;;;;;;1.63;100.00;106271.94;6184567;23;20249;-63
2023/12/09 00:33:54;;;;;;;8.00;7.50;;;;;;;1.71;100.00;105636.53;6184735;23;20162;-64
2023/12/09 00:36:22;;;;;;;7.67;7.13;;;;;;;1.64;100.00;107899.06;6184277;23;20165;-64
2023/12/09 00:38:49;;;;;;;8.77;8.17;;;;;;;1.64;100.00;104974.09;6184206;23;20162;-64
2023/12/09 00:41:16;;;;;;;8.17;7.63;;;;;;;1.63;100.00;107247.00;6184586;23;20169;-64
2023/12/09 00:43:43;;;;;;;8.30;7.80;;;;;;;1.58;100.00;105938.78;6184293;23;20162;-64
2023/12/09 00:46:10;;;;;;;8.47;7.87;;;;;;;1.57;100.00;101066.63;6184237;23;20162;-64
2023/12/09 00:48:39;;;;;;;7.00;6.50;;;;;;;1.67;100.00;99136.56;6184532;23;20162;-64
2023/12/09 00:51:07;;;;;;;7.50;7.10;;;;;;;1.49;100.00;98782.53;6184714;23;20178;-63
2023/12/09 00:53:34;;;;;;;6.90;6.50;;;;;;;1.52;100.00;100083.94;6184090;23;20296;-63
2023/12/09 00:56:01;;;;;;;7.30;6.80;;;;;;;1.53;100.00;98140.13;6184275;23;20162;-63
2023/12/09 00:58:28;;;;;;;7.40;6.80;;;;;;;1.47;100.00;96185.72;6184058;23;20240;-63
2023/12/09 01:00:55;;;;;;;7.67;7.17;;;;;;;1.48;100.00;96511.34;6184493;23;20170;-63
2023/12/09 01:03:22;;;;;;;6.93;6.53;;;;;;;1.43;100.00;94883.63;6184387;23;20162;-62
2023/12/09 01:05:51;;;;;;;7.10;6.67;;;;;;;1.39;100.00;92935.72;6184447;23;20166;-63
2023/12/09 01:08:18;;;;;;;7.00;6.50;;;;;;;1.40;100.00;92613.72;6183975;23;20221;-64
2023/12/09 01:10:45;;;;;;;6.70;6.30;;;;;;;1.17;100.00;89990.38;6184535;23;20602;-64
2023/12/09 01:13:12;;;;;;;6.93;6.50;;;;;;;1.42;100.00;88089.53;6184129;23;20158;-62
2023/12/09 01:15:39;;;;;;;6.90;6.50;;;;;;;1.54;100.00;86814.28;6183989;23;20158;-63
2023/12/09 01:18:06;;;;;;;7.50;6.90;;;;;;;1.61;100.00;89088.31;6183996;23;20223;-65
2023/12/09 01:20:33;;;;;;;6.67;6.27;;;;;;;1.67;100.00;92655.94;6184557;23;20164;-63
2023/12/09 01:23:01;;;;;;;6.73;6.23;;;;;;;1.72;100.00;95902.97;6184429;23;20552;-63
2023/12/09 01:25:28;;;;;;;8.43;7.73;;;;;;;1.74;100.00;97527.03;6184098;23;20167;-62
2023/12/09 01:27:55;;;;;;;7.30;6.80;;;;;;;1.76;100.00;96233.66;6185082;23;20169;-63
2023/12/09 01:30:23;;;;;;;7.80;7.30;;;;;;;1.69;100.00;99788.75;6184321;23;20198;-64
2023/12/09 01:32:50;;;;;;;8.07;7.47;;;;;;;1.61;100.00;103669.53;6184208;23;20217;-63
2023/12/09 01:35:17;;;;;;;7.97;7.13;;;;;;;1.59;100.00;101393.72;6184214;23;20585;-64
2023/12/09 01:37:44;;;;;;;7.83;7.30;;;;;;;1.62;100.00;99453.22;6183830;23;20178;-64
2023/12/09 01:40:16;;;;;;;8.17;7.50;;;;;;;1.66;100.00;102379.66;6183943;23;20522;-63
2023/12/09 01:42:44;;;;;;;7.93;7.43;;;;;;;1.62;100.00;100749.94;6184121;23;20501;-62
2023/12/09 01:45:11;;;;;;;8.17;7.53;;;;;;;1.72;100.00;100442.78;6183990;23;20159;-64
2023/12/09 01:47:39;;;;;;;7.87;7.33;;;;;;;1.74;100.00;102393.75;6183957;23;20193;-63
2023/12/09 01:50:08;;;;;;;7.23;6.73;;;;;;;1.74;100.00;103043.16;6184088;23;20635;-63
2023/12/09 01:52:35;;;;;;;6.50;6.20;;;;;;;1.72;100.00;105313.41;6184009;23;20204;-62
2023/12/09 01:55:03;;;;;;;7.20;6.80;;;;;;;1.70;100.00;110187.06;6184129;23;20165;-63
2023/12/09 01:57:32;;;;;;;7.37;6.90;;;;;;;1.68;100.00;110508.69;6184016;23;20644;-63
2023/12/09 01:59:59;;;;;;;6.70;6.30;;;;;;;1.61;100.00;109520.41;6184298;23;20549;-63
2023/12/09 02:02:26;;;;;;;6.67;6.27;;;;;;;1.70;100.00;109536.38;6183726;23;20232;-64
2023/12/09 02:04:55;;;;;;;7.37;6.77;;;;;;;1.78;100.00;108250.22;6184019;23;20162;-64
2023/12/09 02:07:22;;;;;;;6.57;6.27;;;;;;;1.67;100.00;112785.28;6184063;23;20586;-62
2023/12/09 02:09:49;;;;;;;6.97;6.57;;;;;;;1.76;100.00;112802.69;6183734;23;20188;-64
2023/12/09 02:12:21;;;;;;;7.27;6.67;;;;;;;1.43;100.00;112738.88;6184133;23;20166;-63
2023/12/09 02:14:57;;;;;;;6.63;6.23;;;;;;;1.52;100.00;107226.78;6183580;23;20197;-63
2023/12/09 02:17:32;;;;;;;7.50;7.00;;;;;;;1.47;100.00;103320.00;6183568;23;20193;-62
2023/12/09 02:20:00;;;;;;;8.33;6.17;;;;;;;1.49;100.00;102674.31;6185597;23;20320;-63
2023/12/09 02:22:27;;;;;;;6.70;6.30;;;;;;;1.58;100.00;99121.22;6186005;23;20673;-63
2023/12/09 02:24:56;;;;;;;6.80;6.40;;;;;;;1.66;100.00;98162.00;6186229;23;20158;-63
2023/12/09 02:27:30;;;;;;;6.77;6.37;;;;;;;1.57;100.00;99444.69;6185775;23;20158;-62
2023/12/09 02:30:05;;;;;;;7.43;6.90;;;;;;;1.48;100.00;98131.66;6185874;23;20158;-63
2023/12/09 02:32:35;;;;;;;6.53;6.23;;;;;;;1.37;100.00;95846.94;6185575;23;20201;-63
2023/12/09 02:35:04;;;;;;;7.27;6.87;;;;;;;1.64;100.00;97835.28;6185876;23;20616;-63
2023/12/09 02:37:34;;;;;;;7.57;7.07;;;;;;;1.57;100.00;91992.72;6185366;23;20186;-63
2023/12/09 02:40:05;;;;;;;7.77;7.10;;;;;;;1.61;100.00;92970.09;6186120;23;20602;-63
2023/12/09 02:42:33;;;;;;;6.83;6.33;;;;;;;1.59;100.00;93939.00;6185566;23;20329;-64
2023/12/09 02:45:00;;;;;;;7.20;6.80;;;;;;;1.64;100.00;94594.81;6185878;23;20594;-63
2023/12/09 02:47:27;;;;;;;8.60;7.90;;;;;;;1.74;100.00;94935.00;6185776;23;20221;-63
2023/12/09 02:49:54;;;;;;;8.17;7.57;;;;;;;1.71;100.00;96226.22;6185580;23;20487;-63
2023/12/09 02:52:22;;;;;;;8.33;7.73;;;;;;;1.66;100.00;98810.53;6185498;23;20212;-65
2023/12/09 02:54:49;;;;;;;8.77;7.87;;;;;;;1.66;100.00;98810.53;6185750;23;20590;-64
2023/12/09 02:57:17;;;;;;;7.87;7.23;;;;;;;1.70;100.00;98493.88;6185599;23;20158;-62
2023/12/09 02:59:44;;;;;;;8.13;7.53;;;;;;;1.65;100.00;98484.59;6185334;23;20185;-62
2023/12/09 03:02:11;;;;;;;8.23;7.63;;;;;;;1.47;100.00;96186.56;6185275;23;20249;-64
2023/12/09 03:04:38;;;;;;;6.57;6.17;;;;;;;1.68;100.00;92981.28;6185380;23;20221;-64
2023/12/09 03:07:06;;;;;;;6.80;6.40;;;;;;;1.61;100.00;96209.69;6185742;23;20220;-63
2023/12/09 03:09:32;;;;;;;7.23;6.53;;;;;;;1.50;100.00;96515.50;6185398;23;20158;-63
2023/12/09 03:11:59;;;;;;;6.30;5.90;;;;;;;1.60;100.00;102370.00;6185501;23;20212;-62
2023/12/09 03:14:28;;;;;;;6.57;6.10;;;;;;;1.58;100.00;100418.63;6185826;23;20240;-63
2023/12/09 03:16:55;;;;;;;6.57;6.17;;;;;;;1.57;100.00;96202.28;6185505;23;20595;-63
2023/12/09 03:19:22;;;;;;;7.37;6.80;;;;;;;1.69;100.00;94926.88;6185108;23;20179;-63
2023/12/09 03:21:50;;;;;;;6.40;6.00;;;;;;;1.69;100.00;99140.00;6185468;23;20167;-63
2023/12/09 03:24:17;;;;;;;5.73;5.43;;;;;;;1.73;100.00;103042.25;6185529;23;20169;-64
2023/12/09 03:26:44;;;;;;;6.27;5.87;;;;;;;1.50;100.00;105273.66;6185560;23;20159;-64
2023/12/09 03:29:11;;;;;;;6.80;6.30;;;;;;;1.63;100.00;108873.66;6185191;23;20597;-64
2023/12/09 03:31:42;;;;;;;6.20;5.70;;;;;;;1.78;100.00;106299.31;6184821;23;20218;-64
2023/12/09 03:34:09;;;;;;;6.50;6.10;;;;;;;1.83;100.00;108260.41;6185107;23;20225;-62
2023/12/09 03:36:36;;;;;;;7.50;6.53;;;;;;;1.80;100.00;110856.91;6185303;23;20213;-64
2023/12/09 03:39:03;;;;;;;6.43;6.03;;;;;;;1.50;100.00;111776.00;6185449;23;20186;-63
2023/12/09 03:41:30;;;;;;;7.17;6.67;;;;;;;1.52;100.00;113408.34;6184956;23;20162;-63
2023/12/09 03:43:57;;;;;;;6.73;6.33;;;;;;;1.58;100.00;112116.81;6185198;23;20167;-62
2023/12/09 03:46:25;;;;;;;7.13;6.63;;;;;;;1.68;100.00;112136.06;6185102;23;20162;-62
2023/12/09 03:48:53;;;;;;;7.50;6.93;;;;;;;1.69;100.00;115396.06;6185219;23;20216;-64
2023/12/09 03:51:20;;;;;;;6.67;6.27;;;;;;;1.65;100.00;115387.16;6185536;23;20640;-63
2023/12/09 03:53:47;;;;;;;7.03;6.53;;;;;;;1.61;100.00;115379.22;6184672;23;20205;-63
2023/12/09 03:56:18;;;;;;;7.13;6.63;;;;;;;1.53;100.00;114386.25;6184987;23;20160;-62
2023/12/09 03:58:45;;;;;;;7.50;7.00;;;;;;;1.53;100.00;112108.16;6185115;23;20645;-63
2023/12/09 04:01:12;;;;;;;7.97;7.27;;;;;;;1.38;100.00;110128.50;6184653;23;20162;-63
2023/12/09 04:03:39;;;;;;;8.43;7.67;;;;;;;1.29;100.00;106860.50;6185007;23;20538;-62
2023/12/09 04:06:08;;;;;;;7.97;7.27;;;;;;;1.28;100.00;103287.16;6184992;23;20647;-64
2023/12/09 04:08:35;;;;;;;7.60;7.10;;;;;;;1.29;100.00;100693.75;6184660;23;20154;-64
2023/12/09 04:11:03;;;;;;;8.27;7.57;;;;;;;1.25;100.00;99715.03;6184688;23;20162;-64
2023/12/09 04:13:30;;;;;;;7.33;6.73;;;;;;;1.24;100.00;95825.53;6184580;23;20213;-62
2023/12/09 04:15:57;;;;;;;7.10;6.57;;;;;;;1.22;100.00;96146.06;6184662;23;20170;-63
2023/12/09 04:18:24;;;;;;;6.67;6.27;;;;;;;1.25;100.00;94532.19;6184929;23;20633;-63
2023/12/09 04:20:51;;;;;;;6.70;6.30;;;;;;;1.34;100.00;95194.38;6184423;23;20166;-63
2023/12/09 04:23:20;;;;;;;7.13;6.63;;;;;;;1.34;100.00;94223.13;6184857;23;20166;-63
2023/12/09 04:25:47;;;;;;;5.87;5.47;;;;;;;1.19;100.00;96464.09;6184912;23;20665;-63
2023/12/09 04:28:15;;;;;;;6.50;6.10;;;;;;;1.38;100.00;96820.38;6184717;23;20176;-63
2023/12/09 04:30:42;;;;;;;6.20;5.80;;;;;;;1.36;100.00;98760.47;6184436;23;20169;-63
2023/12/09 04:33:09;;;;;;;5.80;5.13;;;;;;;1.42;100.00;99094.00;6184819;23;20616;-63
2023/12/09 04:35:36;;;;;;;6.17;5.73;;;;;;;1.15;100.00;103589.44;6184915;23;20162;-63
2023/12/09 04:38:03;;;;;;;5.60;5.23;;;;;;;1.01;100.00;102590.63;6184818;23;20646;-63
2023/12/09 04:40:32;;;;;;;6.50;6.10;;;;;;;1.20;100.00;98733.34;6184325;23;20162;-63
2023/12/09 04:42:59;;;;;;;5.83;5.53;;;;;;;1.18;100.00;98406.78;6184354;23;20224;-63
2023/12/09 04:45:26;;;;;;;6.63;6.23;;;;;;;0.91;100.00;95448.41;6184379;23;20170;-64
2023/12/09 04:47:53;;;;;;;12.47;5.87;;;;;;;1.22;100.00;95497.66;6184225;23;20159;-62
2023/12/09 04:50:20;;;;;;;6.07;5.63;;;;;;;1.07;100.00;93855.81;6184655;23;20158;-63
2023/12/09 04:52:47;;;;;;;5.97;5.57;;;;;;;1.17;100.00;94518.38;6184507;23;20201;-63
2023/12/09 04:55:14;;;;;;;5.73;5.43;;;;;;;1.20;100.00;90642.34;6184743;23;20562;-64
2023/12/09 04:57:43;;;;;;;5.97;5.47;;;;;;;0.89;100.00;88009.97;6184470;23;20597;-62
2023/12/09 05:00:11;;;;;;;5.67;5.27;;;;;;;1.08;100.00;84165.03;6184637;23;20162;-62
2023/12/09 05:02:38;;;;;;;6.40;6.00;;;;;;;1.09;100.00;80941.69;6184806;23;20609;-63
2023/12/09 05:05:05;;;;;;;5.73;5.30;;;;;;;1.22;100.00;80637.47;6184684;23;20159;-63
2023/12/09 05:07:33;;;;;;;5.63;5.33;;;;;;;1.10;100.00;79653.31;6184719;23;20663;-63
2023/12/09 05:10:00;;;;;;;5.77;5.47;;;;;;;1.10;100.00;77399.22;6184221;23;20228;-63
2023/12/09 05:12:27;;;;;;;6.97;6.57;;;;;;;1.16;100.00;76441.25;6184441;23;20159;-63
2023/12/09 05:14:55;;;;;;;6.43;6.03;;;;;;;1.06;100.00;75140.09;6184409;23;20240;-63
2023/12/09 05:17:22;;;;;;;6.37;5.87;;;;;;;0.76;100.00;73263.72;6183963;23;20245;-64
2023/12/09 05:19:49;;;;;;;5.70;5.20;;;;;;;1.15;100.00;73543.06;6184192;23;20233;-64
2023/12/09 05:22:18;;;;;;;6.47;5.97;;;;;;;1.21;100.00;72631.59;6184671;23;20594;-62
2023/12/09 05:24:45;;;;;;;5.90;5.50;;;;;;;1.21;100.00;72952.59;6184234;23;20660;-63
2023/12/09 05:27:12;;;;;;;8.50;6.93;;;;;;;1.12;100.00;73951.38;6184027;23;20551;-63
2023/12/09 05:29:38;;;;;;;7.57;6.60;;;;;;;1.06;100.00;75196.03;6184144;23;20438;-63
2023/12/09 05:32:07;;;;;;;5.83;5.40;;;;;;;1.03;100.00;75458.59;6184145;23;20234;-64
2023/12/09 05:34:35;;;;;;;6.10;5.70;;;;;;;0.99;100.00;77061.91;6183743;23;20212;-63
2023/12/09 05:37:02;;;;;;;7.00;5.20;;;;;;;0.84;100.00;78330.88;6183723;23;20166;-62
2023/12/09 05:39:29;;;;;;;6.00;5.60;;;;;;;0.95;100.00;77057.25;6184129;23;20190;-63
2023/12/09 05:41:56;;;;;;;6.43;6.03;;;;;;;0.82;100.00;76130.59;6184183;23;20162;-62
2023/12/09 05:44:23;;;;;;;6.27;5.67;;;;;;;0.97;100.00;73711.13;6183886;23;20166;-63
2023/12/09 05:46:51;;;;;;;6.40;6.10;;;;;;;0.97;100.00;74166.53;6183817;23;20185;-62
2023/12/09 05:49:19;;;;;;;6.60;6.03;;;;;;;0.93;100.00;74149.47;6183801;23;20165;-62
2023/12/09 05:51:46;;;;;;;5.73;5.43;;;;;;;0.85;100.00;73734.13;6183723;23;20170;-63
2023/12/09 05:54:13;;;;;;;9.77;6.07;;;;;;;0.84;100.00;73514.97;6183854;23;20209;-63
2023/12/09 05:56:47;;;;;;;6.30;5.90;;;;;;;0.97;100.00;72879.63;6183781;23;20165;-62
2023/12/09 05:59:14;;;;;;;7.20;6.70;;;;;;;1.00;100.00;73404.03;6183785;23;20193;-65
2023/12/09 06:01:41;;;;;;;5.93;5.53;;;;;;;1.04;100.00;74172.34;6183664;23;20220;-63
2023/12/09 06:04:08;;;;;;;6.93;6.07;;;;;;;1.05;100.00;75139.44;6183835;23;20228;-62
2023/12/09 06:06:37;;;;;;;5.20;4.90;;;;;;;1.11;100.00;76112.75;6184100;23;20548;-63
2023/12/09 06:09:04;;;;;;;6.57;5.97;;;;;;;1.14;100.00;77726.63;6184016;23;20166;-62
2023/12/09 06:11:31;;;;;;;6.13;5.83;;;;;;;0.99;100.00;80283.22;6184019;23;20605;-62
2023/12/09 06:13:59;;;;;;;5.87;5.47;;;;;;;0.94;100.00;83499.69;6184019;23;20574;-62
2023/12/09 06:16:26;;;;;;;5.80;5.40;;;;;;;1.09;100.00;84811.09;6183982;23;20166;-63
2023/12/09 06:18:53;;;;;;;6.17;5.67;;;;;;;1.09;100.00;89009.38;6183558;23;20236;-64
2023/12/09 06:21:21;;;;;;;6.03;5.63;;;;;;;1.06;100.00;90297.28;6183948;23;20166;-64
2023/12/09 06:23:49;;;;;;;6.37;5.97;;;;;;;0.99;100.00;90932.78;6183541;23;20230;-62
2023/12/09 06:26:17;;;;;;;6.03;5.63;;;;;;;1.09;100.00;93535.53;6183740;23;20197;-62
2023/12/09 06:28:44;;;;;;;6.30;5.90;;;;;;;1.15;100.00;92897.34;6183527;23;20156;-64
2023/12/09 06:31:11;;;;;;;14.83;6.60;;;;;;;1.08;100.00;96122.91;6183495;23;20162;-62
2023/12/09 06:33:39;;;;;;;6.73;6.33;;;;;;;1.23;100.00;93558.03;6184093;23;20626;-63
2023/12/09 06:36:07;;;;;;;6.40;5.90;;;;;;;1.08;100.00;98713.81;6183631;23;20213;-63
2023/12/09 06:38:34;;;;;;;5.90;5.53;;;;;;;1.32;100.00;105566.75;6183472;23;20179;-63
2023/12/09 06:41:03;;;;;;;6.63;6.00;;;;;;;1.26;100.00;110105.84;6183573;23;20170;-63
2023/12/09 06:43:30;;;;;;;7.13;6.23;;;;;;;1.45;100.00;113719.31;6183665;23;20162;-63
2023/12/09 06:45:57;;;;;;;6.70;6.30;;;;;;;1.44;100.00;117627.38;6184056;23;20613;-63
2023/12/09 06:48:24;;;;;;;6.60;6.20;;;;;;;1.41;100.00;119902.44;6183530;23;20249;-64
2023/12/09 06:50:51;;;;;;;7.43;6.93;;;;;;;1.59;100.00;118960.91;6183861;23;20229;-63
2023/12/09 06:53:18;;;;;;;7.27;6.77;;;;;;;1.66;100.00;120932.75;6183602;23;20201;-62
2023/12/09 06:55:45;;;;;;;6.60;6.30;;;;;;;1.76;100.00;121607.44;6183462;23;20182;-64
2023/12/09 06:58:15;;;;;;;8.20;7.50;;;;;;;1.72;100.00;122252.06;6183468;23;20198;-63
2023/12/09 07:00:43;;;;;;;13.80;8.20;;;;;;;1.80;100.00;116720.72;6183484;23;20158;-63
2023/12/09 07:03:11;;;;;;;6.97;6.57;;;;;;;1.76;100.00;118343.19;6183795;23;20593;-64
2023/12/09 07:05:38;;;;;;;7.60;7.07;;;;;;;1.76;100.00;112151.44;6184362;23;20158;-64
2023/12/09 07:08:05;;;;;;;8.67;7.80;;;;;;;1.83;100.00;108259.47;6185268;23;20217;-63
2023/12/09 07:10:32;;;;;;;7.30;6.60;;;;;;;1.76;100.00;113129.34;6185573;23;20237;-63
2023/12/09 07:12:59;;;;;;;10.63;6.73;;;;;;;1.69;100.00;111812.44;6185286;23;20162;-63
2023/12/09 07:15:28;;;;;;;7.03;6.40;;;;;;;1.65;100.00;102702.56;6185247;23;20158;-63
2023/12/09 07:17:55;;;;;;;7.83;6.30;;;;;;;1.69;100.00;98815.66;6185673;23;20162;-63
2023/12/09 07:20:22;;;;;;;6.97;6.17;;;;;;;1.78;100.00;95588.81;6185067;23;20178;-63
2023/12/09 07:22:49;;;;;;;6.93;6.43;;;;;;;1.72;100.00;99470.31;6185606;23;20213;-64
2023/12/09 07:25:16;;;;;;;7.50;6.77;;;;;;;1.68;100.00;95572.38;6185391;23;20162;-63
2023/12/09 07:27:43;;;;;;;7.40;6.37;;;;;;;1.70;100.00;94279.81;6185376;23;20497;-62
2023/12/09 07:30:11;;;;;;;6.73;6.27;;;;;;;1.79;100.00;96562.75;6185025;23;20162;-62
2023/12/09 07:32:39;;;;;;;7.20;6.47;;;;;;;1.83;100.00;99488.25;6185514;23;20590;-63
2023/12/09 07:35:07;;;;;;;7.97;6.73;;;;;;;1.86;100.00;102090.13;6185402;23;20217;-63
2023/12/09 07:37:34;;;;;;;6.87;6.43;;;;;;;2.03;100.00;104719.31;6185442;23;20162;-63
2023/12/09 07:40:04;;;;;;;6.73;6.13;;;;;;;2.09;100.00;107981.47;6184986;23;20193;-64
2023/12/09 07:42:31;;;;;;;7.57;7.00;;;;;;;1.94;100.00;109256.06;6184862;23;20269;-63
2023/12/09 07:44:58;;;;;;;7.70;7.03;;;;;;;2.23;100.00;112892.66;6185052;23;20162;-63
2023/12/09 07:47:26;;;;;;;6.17;5.67;;;;;;;2.16;100.00;118098.00;6185208;23;20158;-63
2023/12/09 07:49:54;;;;;;;7.07;6.67;;;;;;;2.14;100.00;121031.25;6185194;23;20158;-63
2023/12/09 07:52:21;;;;;;;7.67;7.03;;;;;;;2.11;100.00;121025.03;6185233;23;20205;-64
2023/12/09 07:54:48;;;;;;;14.20;8.10;;;;;;;1.98;100.00;120019.66;6184815;23;20220;-63
2023/12/09 07:57:15;;;;;;;7.63;6.93;;;;;;;2.04;100.00;121664.72;6185177;23;20158;-64
2023/12/09 07:59:42;;;;;;;8.53;7.83;;;;;;;2.05;100.00;119054.75;6185189;23;20241;-62
2023/12/09 08:02:09;;;;;;;7.00;6.60;;;;;;;2.10;100.00;121022.97;6185268;23;20229;-62
2023/12/09 08:04:38;;;;;;;7.90;7.40;;;;;;;2.16;100.00;123058.09;6184952;23;20229;-63
2023/12/09 08:07:06;;;;;;;7.93;7.43;;;;;;;2.22;100.00;127734.00;6184643;23;20193;-63
2023/12/09 08:09:33;;;;;;;8.10;7.40;;;;;;;2.20;100.00;130597.03;6185017;23;20162;-62
2023/12/09 08:12:00;;;;;;;11.10;7.80;;;;;;;2.22;100.00;132449.56;6184837;23;20221;-62
2023/12/09 08:14:27;;;;;;;12.67;8.67;;;;;;;2.37;100.00;129231.53;6184693;23;20159;-64
2023/12/09 08:16:55;;;;;;;8.07;7.50;;;;;;;2.26;100.00;134077.25;6184911;23;20471;-63
2023/12/09 08:19:22;;;;;;;7.70;6.97;;;;;;;2.29;100.00;141803.53;6184577;23;20194;-62
2023/12/09 08:21:49;;;;;;;8.37;6.87;;;;;;;2.30;100.00;144762.31;6184538;23;20220;-64
2023/12/09 08:24:17;;;;;;;7.80;7.20;;;;;;;2.28;100.00;144097.06;6184908;23;20162;-64
2023/12/09 08:26:44;;;;;;;8.87;7.20;;;;;;;2.26;100.00;139691.75;6184844;23;20168;-64
2023/12/09 08:29:14;;;;;;;23.13;9.40;;;;;;;2.10;100.00;136619.19;6184616;23;20216;-64
2023/12/09 08:31:41;;;;;;;13.33;8.67;;;;;;;2.21;100.00;136943.44;6184591;23;20158;-62
2023/12/09 08:34:08;;;;;;;6.83;6.43;;;;;;;2.10;100.00;138062.34;6184848;23;20573;-64
2023/12/09 08:36:35;;;;;;;7.97;7.40;;;;;;;2.08;100.00;135144.94;6184909;23;20213;-63
2023/12/09 08:39:02;;;;;;;8.93;6.70;;;;;;;1.93;100.00;139373.16;6184806;23;20553;-62
2023/12/09 08:41:30;;;;;;;8.23;7.63;;;;;;;1.91;100.00;133774.16;6184845;23;20513;-62
2023/12/09 08:43:58;;;;;;;10.80;7.80;;;;;;;1.99;100.00;128698.56;6184513;23;20158;-60
2023/12/09 08:46:25;;;;;;;10.47;7.67;;;;;;;1.97;100.00;127693.56;6184578;23;20162;-60
2023/12/09 08:48:52;;;;;;;9.93;7.53;;;;;;;1.83;100.00;126626.75;6184893;23;20170;-59
2023/12/09 08:51:19;;;;;;;7.53;6.97;;;;;;;2.07;100.00;125952.09;6184739;23;20170;-60
2023/12/09 08:53:46;;;;;;;6.57;6.00;;;;;;;1.96;100.00;126422.47;6184238;23;20256;-61
2023/12/09 08:56:13;;;;;;;19.57;8.20;;;;;;;1.97;100.00;122682.59;6184632;23;20548;-60
2023/12/09 08:58:41;;;;;;;8.10;7.27;;;;;;;2.24;100.00;125103.13;6184288;23;20165;-61
2023/12/09 09:01:09;;;;;;;10.60;6.53;;;;;;;2.02;100.00;136405.72;6184535;23;20522;-60
2023/12/09 09:03:36;;;;;;;9.67;6.70;;;;;;;2.21;100.00;141804.66;6184503;23;20237;-60
2023/12/09 09:06:03;;;;;;;7.00;6.53;;;;;;;2.38;100.00;143153.34;6184504;23;20617;-61
2023/12/09 09:08:30;;;;;;;7.60;6.87;;;;;;;2.46;100.00;146608.03;6184127;23;20169;-61
2023/12/09 09:10:57;;;;;;;10.00;7.47;;;;;;;2.44;100.00;146672.47;6184615;23;20663;-60
2023/12/09 09:13:25;;;;;;;18.23;8.30;;;;;;;2.63;100.00;146718.94;6184237;23;20506;-61
2023/12/09 09:15:53;;;;;;;7.90;7.27;;;;;;;2.59;100.00;146710.13;6184680;23;20618;-60
2023/12/09 09:18:21;;;;;;;8.30;7.50;;;;;;;2.65;100.00;146723.94;6184162;23;20208;-60
2023/12/09 09:20:48;;;;;;;17.13;8.17;;;;;;;2.74;100.00;146746.56;6183864;23;20189;-60
2023/12/09 09:23:16;;;;;;;7.83;7.17;;;;;;;2.75;100.00;146749.06;6184399;23;20181;-61
2023/12/09 09:25:43;;;;;;;11.47;8.77;;;;;;;2.88;100.00;146780.47;6183902;23;20244;-61
2023/12/09 09:28:10;;;;;;;7.90;7.43;;;;;;;2.75;100.00;146750.34;6183568;23;20162;-61
2023/12/09 09:30:37;;;;;;;7.63;7.03;;;;;;;2.74;100.00;146746.56;6183872;23;20233;-60
2023/12/09 09:33:06;;;;;;;9.70;7.73;;;;;;;2.67;100.00;146728.97;6184299;23;20162;-60
2023/12/09 09:35:33;;;;;;;11.40;8.40;;;;;;;2.33;100.00;146644.88;6183806;23;20169;-60
2023/12/09 09:38:00;;;;;;;8.27;7.50;;;;;;;2.20;100.00;146613.50;6183947;23;20185;-60
2023/12/09 09:40:27;;;;;;;12.53;8.27;;;;;;;2.52;100.00;146691.28;6183721;23;20178;-60
2023/12/09 09:42:57;;;;;;;9.50;8.60;;;;;;;2.25;100.00;146626.00;6184088;23;20159;-60
2023/12/09 09:45:25;;;;;;;9.30;8.53;;;;;;;2.30;100.00;146637.31;6184254;23;20238;-62
2023/12/09 09:47:54;;;;;;;14.17;9.50;;;;;;;2.58;100.00;146706.38;6184185;23;20224;-60
2023/12/09 09:50:25;;;;;;;11.87;9.43;;;;;;;2.59;100.00;146708.91;6183779;23;20216;-62
2023/12/09 09:52:53;;;;;;;8.53;7.83;;;;;;;2.55;100.00;146700.06;6183695;23;20288;-60
2023/12/09 09:55:22;;;;;;;10.07;9.17;;;;;;;2.61;100.00;146715.16;6183709;23;20165;-60
2023/12/09 09:57:50;;;;;;;9.93;8.93;;;;;;;2.47;100.00;146680.00;6184215;23;21014;-60
2023/12/09 10:00:19;;;;;;;10.27;9.10;;;;;;;2.44;100.00;146671.22;6183606;23;20182;-61
2023/12/09 10:02:48;;;;;;;11.17;9.60;;;;;;;2.26;100.00;141488.22;6184090;23;20181;-60
2023/12/09 10:05:17;;;;;;;10.83;9.37;;;;;;;2.49;100.00;135799.00;6183865;23;20590;-60
2023/12/09 10:07:46;;;;;;;10.17;8.73;;;;;;;2.55;100.00;130163.56;6183797;23;20160;-60
2023/12/09 10:10:16;;;;;;;9.20;8.47;;;;;;;2.72;100.00;138796.75;6183788;23;20186;-60
2023/12/09 10:12:43;;;;;;;23.00;9.30;;;;;;;2.67;100.00;139597.47;6183677;23;20169;-59
2023/12/09 10:15:11;;;;;;;11.50;10.37;;;;;;;2.81;100.00;134636.00;6183552;23;20517;-60
2023/12/09 10:17:39;;;;;;;16.57;11.03;;;;;;;2.63;100.00;138126.06;6183592;23;20245;-60
2023/12/09 10:20:10;;;;;;;11.83;10.73;;;;;;;2.82;100.00;132613.03;6183783;23;20182;-61
2023/12/09 10:22:39;;;;;;;10.90;10.00;;;;;;;2.79;100.00;133895.56;6183593;23;20158;-60
2023/12/09 10:25:08;;;;;;;9.93;9.23;;;;;;;3.01;100.00;138687.25;6183650;23;20189;-59
2023/12/09 10:27:35;;;;;;;8.57;7.83;;;;;;;3.07;100.00;142004.75;6183846;23;20498;-61
2023/12/09 10:30:03;;;;;;;12.90;8.70;;;;;;;2.96;100.00;139425.31;6184015;23;20220;-61
2023/12/09 10:32:30;;;;;;;9.53;6.17;;;;;;;2.78;100.00;138965.25;6183668;23;20190;-60
2023/12/09 10:34:57;;;;;;;7.33;6.80;;;;;;;2.78;100.00;138263.06;6184094;23;20548;-60
2023/12/09 10:37:24;;;;;;;6.87;6.30;;;;;;;2.79;100.00;129413.00;6184076;23;20494;-61
2023/12/09 10:39:52;;;;;;;9.23;6.43;;;;;;;2.58;100.00;129399.75;6184594;23;20186;-60
2023/12/09 10:42:22;;;;;;;7.13;6.60;;;;;;;2.78;100.00;127309.28;6185437;23;20203;-61
2023/12/09 10:44:49;;;;;;;6.83;6.33;;;;;;;2.85;100.00;126935.53;6185854;23;20169;-60
2023/12/09 10:47:16;;;;;;;7.43;6.73;;;;;;;2.99;100.00;127449.78;6185543;23;20165;-60
2023/12/09 10:49:43;;;;;;;7.70;6.97;;;;;;;2.91;100.00;132027.16;6185380;23;20162;-61
2023/12/09 10:52:10;;;;;;;6.93;6.43;;;;;;;3.10;100.00;142084.03;6185538;23;20209;-60
2023/12/09 10:54:38;;;;;;;7.40;6.90;;;;;;;3.10;100.00;143345.22;6185846;23;20626;-60
2023/12/09 10:57:05;;;;;;;7.63;6.93;;;;;;;2.90;100.00;146516.53;6185689;23;20657;-60
2023/12/09 10:59:35;;;;;;;9.60;6.90;;;;;;;2.86;100.00;136420.06;6185238;23;20169;-60
2023/12/09 11:02:02;;;;;;;6.17;5.83;;;;;;;2.97;100.00;136368.78;6185311;23;20574;-62
2023/12/09 11:04:30;;;;;;;7.40;6.93;;;;;;;2.81;100.00;135837.47;6185264;23;20162;-60
2023/12/09 11:07:03;;;;;;;9.07;6.70;;;;;;;2.84;100.00;139499.41;6185843;23;20162;-60
2023/12/09 11:09:31;;;;;;;7.03;5.50;;;;;;;2.79;100.00;141235.34;6185595;23;20506;-62
2023/12/09 11:11:59;;;;;;;6.30;5.90;;;;;;;2.87;100.00;141762.09;6185632;23;20549;-61
2023/12/09 11:14:27;;;;;;;6.23;5.83;;;;;;;3.00;100.00;143484.09;6185865;23;20268;-60
2023/12/09 11:16:57;;;;;;;7.07;6.67;;;;;;;2.90;100.00;144674.50;6185168;23;20165;-61
2023/12/09 11:19:25;;;;;;;5.47;5.17;;;;;;;2.76;100.00;146751.53;6185767;23;20161;-60
2023/12/09 11:21:53;;;;;;;7.00;6.37;;;;;;;2.90;100.00;142964.56;6185675;23;20557;-61
2023/12/09 11:24:20;;;;;;;6.03;5.63;;;;;;;2.89;100.00;142789.88;6185126;23;20162;-60
2023/12/09 11:26:48;;;;;;;7.47;6.70;;;;;;;2.84;100.00;143505.16;6185416;23;20232;-60
2023/12/09 11:29:17;;;;;;;7.63;6.83;;;;;;;2.77;100.00;145187.50;6185056;23;20166;-61